sensor_id;sensor_type;location;lat;lon;timestamp;temperature;humidity
68387;DHT22;55338;43.062;25.624;2023-04-03T00:01:10;6.70;99.90
68387;DHT22;55338;43.062;25.624;2023-04-03T00:03:36;6.70;99.90
68387;DHT22;55338;43.062;25.624;2023-04-03T00:06:03;6.60;99.90
68387;DHT22;55338;43.062;25.624;2023-04-03T00:08:29;6.60;99.90
68387;DHT22;55338;43.062;25.624;2023-04-03T00:10:58;6.60;99.90
68387;DHT22;55338;43.062;25.624;2023-04-03T00:13:24;6.60;99.90
68387;DHT22;55338;43.062;25.624;2023-04-03T00:15:50;6.60;99.90
68387;DHT22;55338;43.062;25.624;2023-04-03T00:18:16;6.60;99.90
68387;DHT22;55338;43.062;25.624;2023-04-03T00:20:42;6.50;99.90
68387;DHT22;55338;43.062;25.624;2023-04-03T00:23:08;6.50;99.90
68387;DHT22;55338;43.062;25.624;2023-04-03T00:25:34;6.50;99.90
68387;DHT22;55338;43.062;25.624;2023-04-03T00:28:00;6.50;99.90
68387;DHT22;55338;43.062;25.624;2023-04-03T00:30:26;6.40;99.90
68387;DHT22;55338;43.062;25.624;2023-04-03T00:32:52;6.30;99.90
68387;DHT22;55338;43.062;25.624;2023-04-03T00:35:20;6.30;99.90
68387;DHT22;55338;43.062;25.624;2023-04-03T00:37:47;6.30;99.90
68387;DHT22;55338;43.062;25.624;2023-04-03T00:40:14;6.30;99.90
68387;DHT22;55338;43.062;25.624;2023-04-03T00:42:42;6.20;99.90
68387;DHT22;55338;43.062;25.624;2023-04-03T00:47:38;6.10;99.90
68387;DHT22;55338;43.062;25.624;2023-04-03T00:50:05;6.10;99.90
68387;DHT22;55338;43.062;25.624;2023-04-03T00:52:31;6.00;99.90
68387;DHT22;55338;43.062;25.624;2023-04-03T00:55:01;6.10;99.90
68387;DHT22;55338;43.062;25.624;2023-04-03T00:57:30;6.10;99.90
68387;DHT22;55338;43.062;25.624;2023-04-03T01:00:01;6.10;99.90
68387;DHT22;55338;43.062;25.624;2023-04-03T01:02:28;6.00;99.90
68387;DHT22;55338;43.062;25.624;2023-04-03T01:04:54;6.00;99.90
68387;DHT22;55338;43.062;25.624;2023-04-03T01:07:23;6.00;99.90
68387;DHT22;55338;43.062;25.624;2023-04-03T01:09:53;5.90;99.90
68387;DHT22;55338;43.062;25.624;2023-04-03T01:12:22;5.90;99.90
68387;DHT22;55338;43.062;25.624;2023-04-03T01:15:06;5.90;99.90
68387;DHT22;55338;43.062;25.624;2023-04-03T01:17:48;5.90;99.90
68387;DHT22;55338;43.062;25.624;2023-04-03T01:25:21;5.80;99.90
68387;DHT22;55338;43.062;25.624;2023-04-03T01:27:47;5.70;99.90
68387;DHT22;55338;43.062;25.624;2023-04-03T01:30:15;5.70;99.90
68387;DHT22;55338;43.062;25.624;2023-04-03T01:32:42;5.60;99.90
68387;DHT22;55338;43.062;25.624;2023-04-03T01:35:09;5.50;99.90
68387;DHT22;55338;43.062;25.624;2023-04-03T01:37:35;5.50;99.90
68387;DHT22;55338;43.062;25.624;2023-04-03T01:40:02;5.50;99.90
68387;DHT22;55338;43.062;25.624;2023-04-03T01:42:28;5.50;99.90
68387;DHT22;55338;43.062;25.624;2023-04-03T01:44:54;5.60;99.90
68387;DHT22;55338;43.062;25.624;2023-04-03T01:47:21;5.50;99.90
68387;DHT22;55338;43.062;25.624;2023-04-03T01:49:47;5.50;99.90
68387;DHT22;55338;43.062;25.624;2023-04-03T01:52:12;5.50;99.90
68387;DHT22;55338;43.062;25.624;2023-04-03T01:54:38;5.50;99.90
68387;DHT22;55338;43.062;25.624;2023-04-03T01:57:04;5.40;99.90
68387;DHT22;55338;43.062;25.624;2023-04-03T01:59:30;5.40;99.90
68387;DHT22;55338;43.062;25.624;2023-04-03T02:01:56;5.50;99.90
68387;DHT22;55338;43.062;25.624;2023-04-03T02:04:22;5.50;99.90
68387;DHT22;55338;43.062;25.624;2023-04-03T02:06:48;5.30;99.90
68387;DHT22;55338;43.062;25.624;2023-04-03T02:09:14;5.30;99.90
68387;DHT22;55338;43.062;25.624;2023-04-03T02:11:40;5.30;99.90
68387;DHT22;55338;43.062;25.624;2023-04-03T02:14:06;5.30;99.90
68387;DHT22;55338;43.062;25.624;2023-04-03T02:16:31;5.20;99.90
68387;DHT22;55338;43.062;25.624;2023-04-03T02:18:57;5.20;99.90
68387;DHT22;55338;43.062;25.624;2023-04-03T02:21:23;5.10;99.90
68387;DHT22;55338;43.062;25.624;2023-04-03T02:23:49;5.40;99.90
68387;DHT22;55338;43.062;25.624;2023-04-03T02:26:15;5.20;99.90
68387;DHT22;55338;43.062;25.624;2023-04-03T02:28:42;5.20;99.90
68387;DHT22;55338;43.062;25.624;2023-04-03T02:31:09;5.10;99.90
68387;DHT22;55338;43.062;25.624;2023-04-03T02:33:36;5.10;99.90
68387;DHT22;55338;43.062;25.624;2023-04-03T02:36:06;5.20;99.90
68387;DHT22;55338;43.062;25.624;2023-04-03T02:38:33;5.20;99.90
68387;DHT22;55338;43.062;25.624;2023-04-03T02:41:17;5.20;99.90
68387;DHT22;55338;43.062;25.624;2023-04-03T02:43:43;5.30;99.90
68387;DHT22;55338;43.062;25.624;2023-04-03T02:46:08;5.30;99.90
68387;DHT22;55338;43.062;25.624;2023-04-03T02:48:34;5.40;99.90
68387;DHT22;55338;43.062;25.624;2023-04-03T02:51:00;5.30;99.90
68387;DHT22;55338;43.062;25.624;2023-04-03T02:53:26;5.30;99.90
68387;DHT22;55338;43.062;25.624;2023-04-03T02:55:52;5.20;99.90
68387;DHT22;55338;43.062;25.624;2023-04-03T02:58:18;5.10;99.90
68387;DHT22;55338;43.062;25.624;2023-04-03T03:00:43;5.10;99.90
68387;DHT22;55338;43.062;25.624;2023-04-03T03:03:09;5.10;99.90
68387;DHT22;55338;43.062;25.624;2023-04-03T03:05:35;5.10;99.90
68387;DHT22;55338;43.062;25.624;2023-04-03T03:08:01;5.10;99.90
68387;DHT22;55338;43.062;25.624;2023-04-03T03:10:27;5.00;99.90
68387;DHT22;55338;43.062;25.624;2023-04-03T03:12:53;5.00;99.90
68387;DHT22;55338;43.062;25.624;2023-04-03T03:15:19;5.10;99.90
68387;DHT22;55338;43.062;25.624;2023-04-03T03:17:45;5.10;99.90
68387;DHT22;55338;43.062;25.624;2023-04-03T03:20:11;5.10;99.90
68387;DHT22;55338;43.062;25.624;2023-04-03T03:22:37;5.00;99.90
68387;DHT22;55338;43.062;25.624;2023-04-03T03:25:04;5.00;99.90
68387;DHT22;55338;43.062;25.624;2023-04-03T03:27:30;4.90;99.90
68387;DHT22;55338;43.062;25.624;2023-04-03T03:29:56;5.00;99.90
68387;DHT22;55338;43.062;25.624;2023-04-03T03:32:22;5.00;99.90
68387;DHT22;55338;43.062;25.624;2023-04-03T03:34:47;5.00;99.90
68387;DHT22;55338;43.062;25.624;2023-04-03T03:37:13;4.90;99.90
68387;DHT22;55338;43.062;25.624;2023-04-03T03:39:39;4.90;99.90
68387;DHT22;55338;43.062;25.624;2023-04-03T03:42:04;5.00;99.90
68387;DHT22;55338;43.062;25.624;2023-04-03T03:44:30;4.90;99.90
68387;DHT22;55338;43.062;25.624;2023-04-03T03:46:56;4.90;99.90
68387;DHT22;55338;43.062;25.624;2023-04-03T03:49:22;4.90;99.90
68387;DHT22;55338;43.062;25.624;2023-04-03T03:51:49;4.90;99.90
68387;DHT22;55338;43.062;25.624;2023-04-03T03:54:16;4.90;99.90
68387;DHT22;55338;43.062;25.624;2023-04-03T03:56:42;4.80;99.90
68387;DHT22;55338;43.062;25.624;2023-04-03T03:59:07;4.80;99.90
68387;DHT22;55338;43.062;25.624;2023-04-03T04:01:33;4.80;99.90
68387;DHT22;55338;43.062;25.624;2023-04-03T04:03:59;4.80;99.90
68387;DHT22;55338;43.062;25.624;2023-04-03T04:06:24;4.80;99.90
68387;DHT22;55338;43.062;25.624;2023-04-03T04:08:50;4.80;99.90
68387;DHT22;55338;43.062;25.624;2023-04-03T04:11:16;4.80;99.90
68387;DHT22;55338;43.062;25.624;2023-04-03T04:13:42;4.80;99.90
68387;DHT22;55338;43.062;25.624;2023-04-03T04:16:07;4.90;99.90
68387;DHT22;55338;43.062;25.624;2023-04-03T04:18:33;5.00;99.90
68387;DHT22;55338;43.062;25.624;2023-04-03T04:20:59;4.90;99.90
68387;DHT22;55338;43.062;25.624;2023-04-03T04:23:25;4.90;99.90
68387;DHT22;55338;43.062;25.624;2023-04-03T04:25:51;4.90;99.90
68387;DHT22;55338;43.062;25.624;2023-04-03T04:28:17;4.90;99.90
68387;DHT22;55338;43.062;25.624;2023-04-03T04:30:44;5.00;99.90
68387;DHT22;55338;43.062;25.624;2023-04-03T04:33:10;5.10;99.90
68387;DHT22;55338;43.062;25.624;2023-04-03T04:35:36;5.10;99.90
68387;DHT22;55338;43.062;25.624;2023-04-03T04:38:02;5.30;99.90
68387;DHT22;55338;43.062;25.624;2023-04-03T04:40:28;5.30;99.90
68387;DHT22;55338;43.062;25.624;2023-04-03T04:42:54;5.40;99.90
68387;DHT22;55338;43.062;25.624;2023-04-03T04:45:23;5.50;99.90
68387;DHT22;55338;43.062;25.624;2023-04-03T04:47:48;5.60;99.90
68387;DHT22;55338;43.062;25.624;2023-04-03T04:50:17;5.70;99.90
68387;DHT22;55338;43.062;25.624;2023-04-03T04:52:45;5.90;99.90
68387;DHT22;55338;43.062;25.624;2023-04-03T04:55:11;6.10;99.90
68387;DHT22;55338;43.062;25.624;2023-04-03T04:57:37;6.10;99.90
68387;DHT22;55338;43.062;25.624;2023-04-03T05:00:04;6.20;99.90
68387;DHT22;55338;43.062;25.624;2023-04-03T05:02:30;6.40;99.90
68387;DHT22;55338;43.062;25.624;2023-04-03T05:04:56;6.50;99.90
68387;DHT22;55338;43.062;25.624;2023-04-03T05:07:22;6.60;99.90
68387;DHT22;55338;43.062;25.624;2023-04-03T05:09:48;6.70;99.90
68387;DHT22;55338;43.062;25.624;2023-04-03T05:12:14;6.80;99.90
68387;DHT22;55338;43.062;25.624;2023-04-03T05:14:40;6.80;99.90
68387;DHT22;55338;43.062;25.624;2023-04-03T05:17:05;6.90;99.90
68387;DHT22;55338;43.062;25.624;2023-04-03T05:19:31;7.00;99.90
68387;DHT22;55338;43.062;25.624;2023-04-03T05:21:57;7.00;99.90
68387;DHT22;55338;43.062;25.624;2023-04-03T05:24:22;7.10;99.90
68387;DHT22;55338;43.062;25.624;2023-04-03T05:26:48;7.10;99.90
68387;DHT22;55338;43.062;25.624;2023-04-03T05:29:14;7.30;99.90
68387;DHT22;55338;43.062;25.624;2023-04-03T05:31:40;7.50;99.90
68387;DHT22;55338;43.062;25.624;2023-04-03T05:34:05;7.60;99.90
68387;DHT22;55338;43.062;25.624;2023-04-03T05:36:31;7.60;99.90
68387;DHT22;55338;43.062;25.624;2023-04-03T05:38:57;7.80;99.90
68387;DHT22;55338;43.062;25.624;2023-04-03T05:41:23;7.90;99.90
68387;DHT22;55338;43.062;25.624;2023-04-03T05:43:49;8.20;99.90
68387;DHT22;55338;43.062;25.624;2023-04-03T05:46:17;8.50;99.90
68387;DHT22;55338;43.062;25.624;2023-04-03T05:48:43;8.80;99.90
68387;DHT22;55338;43.062;25.624;2023-04-03T05:51:28;9.00;99.90
68387;DHT22;55338;43.062;25.624;2023-04-03T05:54:02;9.20;99.90
68387;DHT22;55338;43.062;25.624;2023-04-03T05:56:28;9.40;99.90
68387;DHT22;55338;43.062;25.624;2023-04-03T05:58:54;9.50;99.90
68387;DHT22;55338;43.062;25.624;2023-04-03T06:01:20;9.80;99.90
68387;DHT22;55338;43.062;25.624;2023-04-03T06:03:47;10.00;99.90
68387;DHT22;55338;43.062;25.624;2023-04-03T06:06:14;10.30;99.90
68387;DHT22;55338;43.062;25.624;2023-04-03T06:08:40;10.60;99.90
68387;DHT22;55338;43.062;25.624;2023-04-03T06:11:05;10.80;99.90
68387;DHT22;55338;43.062;25.624;2023-04-03T06:13:31;10.90;99.90
68387;DHT22;55338;43.062;25.624;2023-04-03T06:15:58;11.00;99.90
68387;DHT22;55338;43.062;25.624;2023-04-03T06:18:24;11.20;99.90
68387;DHT22;55338;43.062;25.624;2023-04-03T06:20:50;11.10;99.90
68387;DHT22;55338;43.062;25.624;2023-04-03T06:23:16;11.10;99.90
68387;DHT22;55338;43.062;25.624;2023-04-03T06:25:42;11.10;99.90
68387;DHT22;55338;43.062;25.624;2023-04-03T06:28:09;11.30;99.90
68387;DHT22;55338;43.062;25.624;2023-04-03T06:30:36;11.40;99.90
68387;DHT22;55338;43.062;25.624;2023-04-03T06:33:02;11.50;99.00
68387;DHT22;55338;43.062;25.624;2023-04-03T06:35:29;11.60;99.90
68387;DHT22;55338;43.062;25.624;2023-04-03T06:37:56;11.80;99.40
68387;DHT22;55338;43.062;25.624;2023-04-03T06:40:24;12.00;98.80
68387;DHT22;55338;43.062;25.624;2023-04-03T06:42:51;12.40;96.80
68387;DHT22;55338;43.062;25.624;2023-04-03T06:45:17;12.60;96.10
68387;DHT22;55338;43.062;25.624;2023-04-03T06:47:43;12.80;94.40
68387;DHT22;55338;43.062;25.624;2023-04-03T06:50:10;13.10;94.20
68387;DHT22;55338;43.062;25.624;2023-04-03T06:52:37;13.40;92.30
68387;DHT22;55338;43.062;25.624;2023-04-03T06:55:04;13.40;92.40
68387;DHT22;55338;43.062;25.624;2023-04-03T06:57:30;13.40;92.00
68387;DHT22;55338;43.062;25.624;2023-04-03T06:59:56;13.80;90.50
68387;DHT22;55338;43.062;25.624;2023-04-03T07:02:23;14.00;88.10
68387;DHT22;55338;43.062;25.624;2023-04-03T07:04:48;14.10;87.30
68387;DHT22;55338;43.062;25.624;2023-04-03T07:07:14;14.20;85.80
68387;DHT22;55338;43.062;25.624;2023-04-03T07:09:40;14.40;84.90
68387;DHT22;55338;43.062;25.624;2023-04-03T07:12:07;14.50;83.70
68387;DHT22;55338;43.062;25.624;2023-04-03T07:14:33;14.60;83.60
68387;DHT22;55338;43.062;25.624;2023-04-03T07:16:59;14.80;85.20
68387;DHT22;55338;43.062;25.624;2023-04-03T07:19:25;15.20;81.30
68387;DHT22;55338;43.062;25.624;2023-04-03T07:21:53;15.40;78.30
68387;DHT22;55338;43.062;25.624;2023-04-03T07:24:21;15.40;79.40
68387;DHT22;55338;43.062;25.624;2023-04-03T07:26:51;15.50;79.20
68387;DHT22;55338;43.062;25.624;2023-04-03T07:29:18;15.50;77.60
68387;DHT22;55338;43.062;25.624;2023-04-03T07:31:43;15.70;77.40
68387;DHT22;55338;43.062;25.624;2023-04-03T07:34:13;15.80;76.50
68387;DHT22;55338;43.062;25.624;2023-04-03T07:36:39;16.00;75.90
68387;DHT22;55338;43.062;25.624;2023-04-03T07:39:05;16.10;76.70
68387;DHT22;55338;43.062;25.624;2023-04-03T07:41:32;16.20;76.70
68387;DHT22;55338;43.062;25.624;2023-04-03T07:43:58;16.60;74.60
68387;DHT22;55338;43.062;25.624;2023-04-03T07:46:24;16.90;73.60
68387;DHT22;55338;43.062;25.624;2023-04-03T07:48:50;17.20;72.20
68387;DHT22;55338;43.062;25.624;2023-04-03T07:51:15;17.30;74.20
68387;DHT22;55338;43.062;25.624;2023-04-03T07:53:41;17.70;72.70
68387;DHT22;55338;43.062;25.624;2023-04-03T07:56:08;18.00;69.00
68387;DHT22;55338;43.062;25.624;2023-04-03T07:58:35;18.20;65.30
68387;DHT22;55338;43.062;25.624;2023-04-03T08:01:01;18.60;65.80
68387;DHT22;55338;43.062;25.624;2023-04-03T08:03:27;18.60;65.40
68387;DHT22;55338;43.062;25.624;2023-04-03T08:05:53;18.80;63.10
68387;DHT22;55338;43.062;25.624;2023-04-03T08:08:22;19.10;61.60
68387;DHT22;55338;43.062;25.624;2023-04-03T08:10:49;19.20;59.50
68387;DHT22;55338;43.062;25.624;2023-04-03T08:13:15;19.10;58.60
68387;DHT22;55338;43.062;25.624;2023-04-03T08:15:41;19.20;58.20
68387;DHT22;55338;43.062;25.624;2023-04-03T08:18:07;19.40;57.40
68387;DHT22;55338;43.062;25.624;2023-04-03T08:20:33;19.60;56.20
68387;DHT22;55338;43.062;25.624;2023-04-03T08:22:59;19.70;55.90
68387;DHT22;55338;43.062;25.624;2023-04-03T08:25:25;19.80;55.20
68387;DHT22;55338;43.062;25.624;2023-04-03T08:27:51;19.90;54.50
68387;DHT22;55338;43.062;25.624;2023-04-03T08:30:17;19.40;55.10
68387;DHT22;55338;43.062;25.624;2023-04-03T08:32:43;18.70;57.80
68387;DHT22;55338;43.062;25.624;2023-04-03T08:35:10;18.60;57.70
68387;DHT22;55338;43.062;25.624;2023-04-03T08:37:37;18.70;58.80
68387;DHT22;55338;43.062;25.624;2023-04-03T08:40:05;18.80;58.90
68387;DHT22;55338;43.062;25.624;2023-04-03T08:42:47;18.90;58.90
68387;DHT22;55338;43.062;25.624;2023-04-03T08:45:46;19.00;58.20
68387;DHT22;55338;43.062;25.624;2023-04-03T08:48:24;18.90;57.00
68387;DHT22;55338;43.062;25.624;2023-04-03T08:50:59;19.00;58.00
68387;DHT22;55338;43.062;25.624;2023-04-03T08:53:29;18.60;59.40
68387;DHT22;55338;43.062;25.624;2023-04-03T08:55:58;18.40;58.90
68387;DHT22;55338;43.062;25.624;2023-04-03T08:58:30;18.40;60.00
68387;DHT22;55338;43.062;25.624;2023-04-03T09:01:04;18.00;59.80
68387;DHT22;55338;43.062;25.624;2023-04-03T09:03:40;17.90;61.50
68387;DHT22;55338;43.062;25.624;2023-04-03T09:06:28;18.20;59.20
68387;DHT22;55338;43.062;25.624;2023-04-03T09:17:09;19.00;57.70
68387;DHT22;55338;43.062;25.624;2023-04-03T09:19:44;19.10;57.20
68387;DHT22;55338;43.062;25.624;2023-04-03T09:24:39;19.30;57.40
68387;DHT22;55338;43.062;25.624;2023-04-03T09:27:08;19.60;56.50
68387;DHT22;55338;43.062;25.624;2023-04-03T09:29:42;19.60;55.60
68387;DHT22;55338;43.062;25.624;2023-04-03T09:32:29;19.60;56.10
68387;DHT22;55338;43.062;25.624;2023-04-03T09:35:02;19.90;54.30
68387;DHT22;55338;43.062;25.624;2023-04-03T09:37:46;20.00;55.60
68387;DHT22;55338;43.062;25.624;2023-04-03T09:40:39;20.30;54.20
68387;DHT22;55338;43.062;25.624;2023-04-03T09:45:45;20.90;50.20
68387;DHT22;55338;43.062;25.624;2023-04-03T09:51:00;21.70;50.70
68387;DHT22;55338;43.062;25.624;2023-04-03T09:56:09;22.40;48.90
68387;DHT22;55338;43.062;25.624;2023-04-03T09:58:46;22.60;48.10
68387;DHT22;55338;43.062;25.624;2023-04-03T10:01:25;22.90;48.90
68387;DHT22;55338;43.062;25.624;2023-04-03T10:06:39;22.90;46.70
68387;DHT22;55338;43.062;25.624;2023-04-03T10:11:59;22.90;47.60
68387;DHT22;55338;43.062;25.624;2023-04-03T10:14:27;22.60;48.90
68387;DHT22;55338;43.062;25.624;2023-04-03T10:17:14;22.20;48.60
68387;DHT22;55338;43.062;25.624;2023-04-03T10:19:52;22.00;48.10
68387;DHT22;55338;43.062;25.624;2023-04-03T10:25:40;21.60;51.60
68387;DHT22;55338;43.062;25.624;2023-04-03T10:34:00;22.70;48.00
68387;DHT22;55338;43.062;25.624;2023-04-03T10:36:57;22.70;47.40
68387;DHT22;55338;43.062;25.624;2023-04-03T10:39:54;22.70;47.20
68387;DHT22;55338;43.062;25.624;2023-04-03T10:42:33;22.70;46.40
68387;DHT22;55338;43.062;25.624;2023-04-03T10:45:24;22.60;47.40
68387;DHT22;55338;43.062;25.624;2023-04-03T10:50:53;21.90;49.30
68387;DHT22;55338;43.062;25.624;2023-04-03T10:56:29;21.20;50.00
68387;DHT22;55338;43.062;25.624;2023-04-03T11:01:34;20.60;51.30
68387;DHT22;55338;43.062;25.624;2023-04-03T11:04:04;20.50;50.60
68387;DHT22;55338;43.062;25.624;2023-04-03T11:06:39;20.30;50.80
68387;DHT22;55338;43.062;25.624;2023-04-03T11:09:16;20.30;51.30
68387;DHT22;55338;43.062;25.624;2023-04-03T11:11:45;20.20;52.50
68387;DHT22;55338;43.062;25.624;2023-04-03T11:14:28;20.20;51.70
68387;DHT22;55338;43.062;25.624;2023-04-03T11:17:21;20.00;52.20
68387;DHT22;55338;43.062;25.624;2023-04-03T11:22:51;19.80;54.00
68387;DHT22;55338;43.062;25.624;2023-04-03T11:25:21;19.80;52.50
68387;DHT22;55338;43.062;25.624;2023-04-03T11:35:31;19.80;50.90
68387;DHT22;55338;43.062;25.624;2023-04-03T11:37:59;19.70;51.50
68387;DHT22;55338;43.062;25.624;2023-04-03T11:40:37;19.70;51.70
68387;DHT22;55338;43.062;25.624;2023-04-03T11:43:07;19.50;51.80
68387;DHT22;55338;43.062;25.624;2023-04-03T11:50:48;19.70;55.10
68387;DHT22;55338;43.062;25.624;2023-04-03T11:55:55;19.50;55.00
68387;DHT22;55338;43.062;25.624;2023-04-03T12:01:04;19.00;55.50
68387;DHT22;55338;43.062;25.624;2023-04-03T12:03:55;18.80;56.80
68387;DHT22;55338;43.062;25.624;2023-04-03T12:08:54;18.50;57.10
68387;DHT22;55338;43.062;25.624;2023-04-03T12:11:28;18.40;56.50
68387;DHT22;55338;43.062;25.624;2023-04-03T12:21:16;18.10;55.80
68387;DHT22;55338;43.062;25.624;2023-04-03T12:23:58;18.10;56.50
68387;DHT22;55338;43.062;25.624;2023-04-03T12:28:56;18.20;56.90
68387;DHT22;55338;43.062;25.624;2023-04-03T12:31:25;18.20;56.70
68387;DHT22;55338;43.062;25.624;2023-04-03T12:34:09;18.20;57.60
68387;DHT22;55338;43.062;25.624;2023-04-03T12:46:52;18.60;56.40
68387;DHT22;55338;43.062;25.624;2023-04-03T12:51:57;18.80;56.40
68387;DHT22;55338;43.062;25.624;2023-04-03T12:54:30;18.90;55.60
68387;DHT22;55338;43.062;25.624;2023-04-03T12:57:20;18.80;55.90
68387;DHT22;55338;43.062;25.624;2023-04-03T12:59:47;18.60;55.50
68387;DHT22;55338;43.062;25.624;2023-04-03T13:02:25;18.50;57.40
68387;DHT22;55338;43.062;25.624;2023-04-03T13:04:54;18.40;58.00
68387;DHT22;55338;43.062;25.624;2023-04-03T13:09:59;18.30;57.10
68387;DHT22;55338;43.062;25.624;2023-04-03T13:12:25;18.20;57.10
68387;DHT22;55338;43.062;25.624;2023-04-03T13:14:58;18.00;56.80
68387;DHT22;55338;43.062;25.624;2023-04-03T13:17:25;17.90;57.10
68387;DHT22;55338;43.062;25.624;2023-04-03T13:19:51;17.80;57.80
68387;DHT22;55338;43.062;25.624;2023-04-03T13:25:23;17.60;61.70
68387;DHT22;55338;43.062;25.624;2023-04-03T13:27:50;17.40;62.30
68387;DHT22;55338;43.062;25.624;2023-04-03T13:30:27;17.10;63.70
68387;DHT22;55338;43.062;25.624;2023-04-03T13:32:54;17.30;64.60
68387;DHT22;55338;43.062;25.624;2023-04-03T13:35:26;17.20;67.10
68387;DHT22;55338;43.062;25.624;2023-04-03T13:37:57;17.20;66.40
68387;DHT22;55338;43.062;25.624;2023-04-03T13:40:24;17.10;66.30
68387;DHT22;55338;43.062;25.624;2023-04-03T13:43:06;17.00;68.30
68387;DHT22;55338;43.062;25.624;2023-04-03T13:45:57;16.80;70.30
68387;DHT22;55338;43.062;25.624;2023-04-03T13:48:24;16.70;70.80
68387;DHT22;55338;43.062;25.624;2023-04-03T13:51:03;16.60;72.40
68387;DHT22;55338;43.062;25.624;2023-04-03T13:53:31;16.50;72.40
68387;DHT22;55338;43.062;25.624;2023-04-03T13:58:31;16.30;76.60
68387;DHT22;55338;43.062;25.624;2023-04-03T14:01:14;16.20;76.50
68387;DHT22;55338;43.062;25.624;2023-04-03T14:06:17;16.00;77.70
68387;DHT22;55338;43.062;25.624;2023-04-03T14:08:44;16.00;81.10
68387;DHT22;55338;43.062;25.624;2023-04-03T14:11:30;15.90;80.80
68387;DHT22;55338;43.062;25.624;2023-04-03T14:14:01;15.80;83.30
68387;DHT22;55338;43.062;25.624;2023-04-03T14:16:31;15.80;85.30
68387;DHT22;55338;43.062;25.624;2023-04-03T14:18:57;15.70;87.60
68387;DHT22;55338;43.062;25.624;2023-04-03T14:21:23;15.70;89.90
68387;DHT22;55338;43.062;25.624;2023-04-03T14:23:49;15.70;92.70
68387;DHT22;55338;43.062;25.624;2023-04-03T14:26:21;15.70;95.80
68387;DHT22;55338;43.062;25.624;2023-04-03T14:28:49;15.50;96.40
68387;DHT22;55338;43.062;25.624;2023-04-03T14:31:17;15.50;97.10
68387;DHT22;55338;43.062;25.624;2023-04-03T14:33:44;15.50;99.00
68387;DHT22;55338;43.062;25.624;2023-04-03T14:36:19;15.40;99.90
68387;DHT22;55338;43.062;25.624;2023-04-03T14:38:46;15.30;99.90
68387;DHT22;55338;43.062;25.624;2023-04-03T14:41:14;15.30;99.90
68387;DHT22;55338;43.062;25.624;2023-04-03T14:43:41;15.30;99.90
68387;DHT22;55338;43.062;25.624;2023-04-03T14:46:17;15.20;99.90
68387;DHT22;55338;43.062;25.624;2023-04-03T14:48:44;15.10;99.90
68387;DHT22;55338;43.062;25.624;2023-04-03T14:51:11;15.10;99.90
68387;DHT22;55338;43.062;25.624;2023-04-03T14:53:38;15.00;99.90
68387;DHT22;55338;43.062;25.624;2023-04-03T14:56:14;14.90;99.90
68387;DHT22;55338;43.062;25.624;2023-04-03T14:58:41;14.80;99.90
68387;DHT22;55338;43.062;25.624;2023-04-03T15:01:10;14.80;99.90
68387;DHT22;55338;43.062;25.624;2023-04-03T15:03:37;14.80;99.90
68387;DHT22;55338;43.062;25.624;2023-04-03T15:06:03;14.70;99.90
68387;DHT22;55338;43.062;25.624;2023-04-03T15:08:29;14.60;99.90
68387;DHT22;55338;43.062;25.624;2023-04-03T15:10:56;14.50;99.90
68387;DHT22;55338;43.062;25.624;2023-04-03T15:13:23;14.40;99.90
68387;DHT22;55338;43.062;25.624;2023-04-03T15:15:49;14.40;99.90
68387;DHT22;55338;43.062;25.624;2023-04-03T15:18:21;14.30;99.90
68387;DHT22;55338;43.062;25.624;2023-04-03T15:20:47;14.30;99.90
68387;DHT22;55338;43.062;25.624;2023-04-03T15:23:15;14.20;99.90
68387;DHT22;55338;43.062;25.624;2023-04-03T15:25:43;14.10;99.90
68387;DHT22;55338;43.062;25.624;2023-04-03T15:28:17;14.10;99.90
68387;DHT22;55338;43.062;25.624;2023-04-03T15:30:43;14.00;99.90
68387;DHT22;55338;43.062;25.624;2023-04-03T15:33:09;14.00;99.90
68387;DHT22;55338;43.062;25.624;2023-04-03T15:35:35;13.90;99.90
68387;DHT22;55338;43.062;25.624;2023-04-03T15:38:01;13.90;99.90
68387;DHT22;55338;43.062;25.624;2023-04-03T15:40:27;13.80;99.90
68387;DHT22;55338;43.062;25.624;2023-04-03T15:42:52;13.80;99.90
68387;DHT22;55338;43.062;25.624;2023-04-03T15:45:18;13.60;99.90
68387;DHT22;55338;43.062;25.624;2023-04-03T15:47:44;13.50;99.90
68387;DHT22;55338;43.062;25.624;2023-04-03T15:50:10;13.50;99.90
68387;DHT22;55338;43.062;25.624;2023-04-03T15:52:37;13.50;99.90
68387;DHT22;55338;43.062;25.624;2023-04-03T15:55:03;13.40;99.90
68387;DHT22;55338;43.062;25.624;2023-04-03T15:57:29;13.40;99.90
68387;DHT22;55338;43.062;25.624;2023-04-03T15:59:55;13.40;99.90
68387;DHT22;55338;43.062;25.624;2023-04-03T16:02:22;13.30;99.90
68387;DHT22;55338;43.062;25.624;2023-04-03T16:04:48;13.30;99.90
68387;DHT22;55338;43.062;25.624;2023-04-03T16:07:14;13.30;99.90
68387;DHT22;55338;43.062;25.624;2023-04-03T16:09:40;13.20;99.90
68387;DHT22;55338;43.062;25.624;2023-04-03T16:12:06;13.20;99.90
68387;DHT22;55338;43.062;25.624;2023-04-03T16:14:31;13.10;99.90
68387;DHT22;55338;43.062;25.624;2023-04-03T16:16:59;13.10;99.90
68387;DHT22;55338;43.062;25.624;2023-04-03T16:19:25;13.00;99.90
68387;DHT22;55338;43.062;25.624;2023-04-03T16:21:51;13.10;99.90
68387;DHT22;55338;43.062;25.624;2023-04-03T16:24:18;13.00;99.90
68387;DHT22;55338;43.062;25.624;2023-04-03T16:26:44;13.00;99.90
68387;DHT22;55338;43.062;25.624;2023-04-03T16:29:09;13.00;99.90
68387;DHT22;55338;43.062;25.624;2023-04-03T16:31:35;13.00;99.90
68387;DHT22;55338;43.062;25.624;2023-04-03T16:34:01;13.00;99.90
68387;DHT22;55338;43.062;25.624;2023-04-03T16:36:27;12.90;99.90
68387;DHT22;55338;43.062;25.624;2023-04-03T16:38:53;12.90;99.90
68387;DHT22;55338;43.062;25.624;2023-04-03T16:41:19;12.90;99.90
68387;DHT22;55338;43.062;25.624;2023-04-03T16:43:44;12.90;99.90
68387;DHT22;55338;43.062;25.624;2023-04-03T16:46:10;12.90;99.90
68387;DHT22;55338;43.062;25.624;2023-04-03T16:48:36;12.80;99.90
68387;DHT22;55338;43.062;25.624;2023-04-03T16:51:02;12.70;99.90
68387;DHT22;55338;43.062;25.624;2023-04-03T16:53:28;12.60;99.90
68387;DHT22;55338;43.062;25.624;2023-04-03T16:55:56;12.50;99.90
68387;DHT22;55338;43.062;25.624;2023-04-03T16:58:22;12.50;99.90
68387;DHT22;55338;43.062;25.624;2023-04-03T17:00:48;12.50;99.90
68387;DHT22;55338;43.062;25.624;2023-04-03T17:03:13;12.50;99.90
68387;DHT22;55338;43.062;25.624;2023-04-03T17:05:39;12.50;99.90
68387;DHT22;55338;43.062;25.624;2023-04-03T17:08:05;12.50;99.90
68387;DHT22;55338;43.062;25.624;2023-04-03T17:10:31;12.50;99.90
68387;DHT22;55338;43.062;25.624;2023-04-03T17:12:59;12.50;99.90
68387;DHT22;55338;43.062;25.624;2023-04-03T17:15:24;12.50;99.90
68387;DHT22;55338;43.062;25.624;2023-04-03T17:17:51;12.50;99.90